ЗЦ Беларусь

 

Обслуживание воздушного движения в воздушном пространстве Республики Беларусь осуществляется Минским районным и аэродромным диспетчерским центром, а также службами воздушного движения в аэропортах при тесном взаимодействии со смежными диспетчерскими центрами и другими органами, участвующими в обеспечении полетов. Благодаря согласованным действиям полеты воздушных судов осуществляются по кратчайшим расстояниям, на экономичных высотах и режимах полета. Управление воздушным движением осуществляется на площади 207,6 кв. км, а протяженность воздушных трасс составляет 25 000 км.

 

В воздушном пространстве Республики Беларусь в узловых диспетчерских районах установлена единая для гражданских аэропортов высота перехода (transition altitude) - 6000 ft (1850 м), определяемая по давлению аэродрома, приведенному к среднему уровню моря по стандартной атмосфере.

Эшелон перехода (Transition Level) устанавливается:

TL80 (2450 м) - при минимальном давлении на территории Республики Беларусь, приведенном к среднему уровню моря по стандартной атмосфере, до 977,2 гПа;

TL90 (2750 м) - при минимальном давлении на территории Республики Беларусь, приведенном к среднему уровню моря по стандартной атмосфере 977,1 гПа и ниже.

 

Средства связи ОВД:

UMMV_CTR - Minsk-Control - Минск-Контроль - 129.000

 

Диапазон кодов ответчика: район применения ICAO EUR-E

2001-2077, 5101-5137 (транзит), 6230-6277  (транзит)

Лого ЗЦ Беларусь
Руководитель региона

Roman Savel

Контакты

Инструкторы региона
Denis Kashin (Instructor)
Maxim Gerasimov (Instructor)
Roman Savel (Instructor)
Включает в себя

РПИ Минск

Диспетчеры региона

Диспетчер Рейтинг Допуски *
Andrei Valasevich Controller UMMV_CTR
Denis Kashin Instructor UMMV_CTR
Maxim Gerasimov Instructor UMMV_CTR
Roman Savel Instructor UMMV_CTR
Akmal Choriev Student UMMS_GND
Alexander Nazarenko Student UMMS_GND
Alexey Verbitsky Student UMMS_GND
Anna Piliushko Student 2 UMMS_APP*
Arseny Krutikov Student 2 UMMS_2_TWR*, UMMS_1_TWR*
Artyom Somok Student UMMS_GND
Danila Yarov Senior Student UMMS_APP
Dmitriy Kuzmin Senior Student UMMS_APP*
Ignat Morozov Student 2 UMMS_GND
Iosif Karpov Student 2 UMMS_R_APP*
Ivan Davidovich Student UMMS_GND
Maxim Ivantsov Student 2 UMMS_R_APP*
Michael Kostelcev Student 2 UMMS_APP*
Pavel Yashin Student 2 UMMS_APP*
Vsevolod Shyshko Student UMMS_1_TWR*, UMMS_2_TWR*

Аэропорты региона

ICAO Город Название Погода
UMMS Минск Минск UMMS 010200Z VRB01MPS 9999 0500S R31L/0500N PRFG NSC 13/13 Q1019 NOSIG
UMBB Брест Брест
UMII Витебск Восточный UMII 010200Z 03002MPS 8000 NSC 16/14 Q1019 NOSIG
UMGG Гомель Гомель UMGG 010100Z 35002MPS CAVOK 14/13 Q1019 NOSIG
UMMG Гродно Гродно UMMG 010200Z 00000MPS CAVOK 20/16 Q1017 NOSIG
UMOO Могилёв Могилёв